Time,TemperatureF,DewpointF,PressureIn,WindDirection,WindDirectionDegrees,WindSpeedMPH,WindSpeedGustMPH,Humidity,HourlyPrecipIn,Conditions,Clouds,dailyrainin,SolarRadiationWatts/m^2,SoftwareType,DateUTC
2013-09-23 00:00:00,58.0,57.0,29.91,SW,229,0.0,0.0,96,0.00,,,0.55,0,weatherlink.com 1.10,2013-09-23 04:00:00,
2013-09-23 00:15:00,57.7,57.0,29.91,SW,229,0.0,0.0,96,0.00,,,0.55,0,weatherlink.com 1.10,2013-09-23 04:15:00,
2013-09-23 00:30:00,57.6,57.0,29.92,SW,229,0.0,0.0,96,0.00,,,0.55,0,weatherlink.com 1.10,2013-09-23 04:30:00,
2013-09-23 00:45:00,57.2,56.0,29.92,SW,229,0.0,0.0,96,0.00,,,0.55,0,weatherlink.com 1.10,2013-09-23 04:45:00,
2013-09-23 01:00:00,56.9,56.0,29.92,SW,229,0.0,0.0,96,0.00,,,0.00,0,weatherlink.com 1.10,2013-09-23 05:00:00,
2013-09-23 01:15:00,56.7,56.0,29.93,SW,229,0.0,0.0,96,0.00,,,0.00,0,weatherlink.com 1.10,2013-09-23 05:15:00,
2013-09-23 01:30:00,56.4,55.0,29.93,SW,229,0.0,0.0,96,0.00,,,0.00,0,weatherlink.com 1.10,2013-09-23 05:30:00,
2013-09-23 01:45:00,56.1,55.0,29.94,SW,229,0.0,0.0,96,0.00,,,0.00,0,weatherlink.com 1.10,2013-09-23 05:45:00,
2013-09-23 02:00:00,56.0,55.0,29.94,SW,229,0.0,0.0,96,0.00,,,0.00,0,weatherlink.com 1.10,2013-09-23 06:00:00,
2013-09-23 02:15:00,55.7,55.0,29.94,SW,229,0.0,0.0,96,0.00,,,0.00,0,weatherlink.com 1.10,2013-09-23 06:15:00,
2013-09-23 02:30:00,55.7,55.0,29.94,SW,229,0.0,0.0,97,0.00,,,0.00,0,weatherlink.com 1.10,2013-09-23 06:30:00,
2013-09-23 02:45:00,55.9,55.0,29.94,SW,229,0.0,0.0,97,0.00,,,0.00,0,weatherlink.com 1.10,2013-09-23 06:45:00,
2013-09-23 03:00:00,55.9,55.0,29.95,SW,229,0.0,0.0,97,0.00,,,0.00,0,weatherlink.com 1.10,2013-09-23 07:00:00,
2013-09-23 03:15:00,56.0,55.0,29.95,SW,229,0.0,0.0,97,0.00,,,0.00,0,weatherlink.com 1.10,2013-09-23 07:15:00,
2013-09-23 03:30:00,55.7,55.0,29.95,SW,229,0.0,0.0,97,0.00,,,0.00,0,weatherlink.com 1.10,2013-09-23 07:30:00,
2013-09-23 03:45:00,55.8,55.0,29.95,SW,229,0.0,0.0,97,0.00,,,0.00,0,weatherlink.com 1.10,2013-09-23 07:45:00,
2013-09-23 04:00:00,55.8,55.0,29.96,SW,229,0.0,1.0,97,0.00,,,0.00,0,weatherlink.com 1.10,2013-09-23 08:00:00,
2013-09-23 04:15:00,55.9,55.0,29.96,SW,229,0.0,1.0,97,0.00,,,0.00,0,weatherlink.com 1.10,2013-09-23 08:15:00,
2013-09-23 04:30:00,55.8,55.0,29.96,SW,229,0.0,0.0,97,0.00,,,0.00,0,weatherlink.com 1.10,2013-09-23 08:30:00,
2013-09-23 04:45:00,55.4,54.0,29.96,SW,229,0.0,0.0,96,0.00,,,0.00,0,weatherlink.com 1.10,2013-09-23 08:45:00,
2013-09-23 05:00:00,55.0,54.0,29.97,SW,229,0.0,0.0,97,0.00,,,0.00,0,weatherlink.com 1.10,2013-09-23 09:00:00,
2013-09-23 05:15:00,54.7,54.0,29.97,WNW,283,0.0,0.0,96,0.00,,,0.00,0,weatherlink.com 1.10,2013-09-23 09:15:00,
2013-09-23 05:30:00,54.3,53.0,29.98,WNW,283,0.0,0.0,96,0.00,,,0.00,0,weatherlink.com 1.10,2013-09-23 09:30:00,
2013-09-23 05:45:00,53.8,53.0,29.98,WNW,283,0.0,0.0,96,0.00,,,0.00,0,weatherlink.com 1.10,2013-09-23 09:45:00,
2013-09-23 06:01:00,53.5,52.0,29.99,WNW,283,0.0,0.0,96,0.00,,,0.00,0,weatherlink.com 1.10,2013-09-23 10:01:00,
2013-09-23 06:16:00,53.2,52.0,29.99,WNW,283,0.0,0.0,96,0.00,,,0.00,0,weatherlink.com 1.10,2013-09-23 10:16:00,
2013-09-23 06:31:00,53.0,52.0,30.00,WNW,283,1.0,1.0,96,0.00,,,0.00,0,weatherlink.com 1.10,2013-09-23 10:31:00,
2013-09-23 06:46:00,52.9,52.0,30.01,WNW,283,0.0,0.0,96,0.00,,,0.00,0,weatherlink.com 1.10,2013-09-23 10:46:00,
2013-09-23 07:01:00,52.8,52.0,30.01,WNW,283,0.0,0.0,96,0.00,,,0.00,0,weatherlink.com 1.10,2013-09-23 11:01:00,
2013-09-23 07:16:00,52.5,51.0,30.02,WNW,283,0.0,0.0,96,0.00,,,0.00,9,weatherlink.com 1.10,2013-09-23 11:16:00,
2013-09-23 07:31:00,52.4,51.0,30.03,WNW,283,0.0,0.0,96,0.00,,,0.00,19,weatherlink.com 1.10,2013-09-23 11:31:00,
2013-09-23 07:46:00,52.5,51.0,30.04,WNW,283,0.0,0.0,96,0.00,,,0.00,33,weatherlink.com 1.10,2013-09-23 11:46:00,
2013-09-23 08:01:00,53.2,52.0,30.04,WNW,283,0.0,0.0,97,0.00,,,0.00,121,weatherlink.com 1.10,2013-09-23 12:01:00,
2013-09-23 08:16:00,54.5,54.0,30.04,WNW,283,0.0,0.0,97,0.00,,,0.00,35,weatherlink.com 1.10,2013-09-23 12:16:00,
2013-09-23 08:31:00,55.6,55.0,30.04,WNW,283,0.0,0.0,96,0.00,,,0.00,211,weatherlink.com 1.10,2013-09-23 12:31:00,
2013-09-23 08:46:00,57.7,55.0,30.05,NE,54,0.0,3.0,89,0.00,,,0.00,260,weatherlink.com 1.10,2013-09-23 12:46:00,
2013-09-23 09:01:00,60.2,55.0,30.05,ENE,78,0.0,3.0,82,0.00,,,0.00,308,weatherlink.com 1.10,2013-09-23 13:01:00,
2013-09-23 09:16:00,61.5,54.0,30.06,East,79,2.0,3.0,77,0.00,,,0.00,359,weatherlink.com 1.10,2013-09-23 13:16:00,
2013-09-23 09:31:00,62.8,54.0,30.06,NNW,327,1.0,6.0,72,0.00,,,0.00,441,weatherlink.com 1.10,2013-09-23 13:31:00,
2013-09-23 09:46:00,63.6,53.0,30.06,NNW,335,1.0,6.0,68,0.00,,,0.00,461,weatherlink.com 1.10,2013-09-23 13:46:00,
2013-09-23 10:01:00,64.4,54.0,30.07,NW,320,1.0,6.0,68,0.00,,,0.00,503,weatherlink.com 1.10,2013-09-23 14:01:00,
2013-09-23 10:16:00,64.9,52.0,30.07,ENE,72,0.0,5.0,63,0.00,,,0.00,548,weatherlink.com 1.10,2013-09-23 14:16:00,
2013-09-23 10:31:00,65.7,55.0,30.07,NE,55,5.0,6.0,68,0.00,,,0.00,587,weatherlink.com 1.10,2013-09-23 14:31:00,
2013-09-23 10:47:00,66.3,53.0,30.07,ENE,64,0.0,5.0,62,0.00,,,0.00,624,weatherlink.com 1.10,2013-09-23 14:47:00,
2013-09-23 11:02:00,66.3,54.0,30.07,East,79,1.0,9.0,64,0.00,,,0.00,657,weatherlink.com 1.10,2013-09-23 15:02:00,
2013-09-23 11:17:00,66.9,53.0,30.07,ESE,111,2.0,11.0,61,0.00,,,0.00,687,weatherlink.com 1.10,2013-09-23 15:17:00,
2013-09-23 11:32:00,68.1,52.0,30.07,ESE,115,1.0,4.0,57,0.00,,,0.00,715,weatherlink.com 1.10,2013-09-23 15:32:00,
2013-09-23 11:47:00,67.8,55.0,30.07,ENE,58,1.0,7.0,63,0.00,,,0.00,738,weatherlink.com 1.10,2013-09-23 15:47:00,
2013-09-23 12:02:00,68.5,52.0,30.07,ESE,114,1.0,4.0,57,0.00,,,0.00,759,weatherlink.com 1.10,2013-09-23 16:02:00,
2013-09-23 12:17:00,68.8,52.0,30.07,East,86,7.0,8.0,55,0.00,,,0.00,775,weatherlink.com 1.10,2013-09-23 16:17:00,
2013-09-23 12:32:00,68.8,52.0,30.07,ENE,67,4.0,5.0,56,0.00,,,0.00,786,weatherlink.com 1.10,2013-09-23 16:32:00,
2013-09-23 12:47:00,69.3,53.0,30.06,NE,52,2.0,5.0,56,0.00,,,0.00,800,weatherlink.com 1.10,2013-09-23 16:47:00,
2013-09-23 13:02:00,69.4,53.0,30.06,East,86,2.0,7.0,56,0.00,,,0.00,823,weatherlink.com 1.10,2013-09-23 17:02:00,
2013-09-23 13:17:00,69.6,53.0,30.06,SE,139,1.0,7.0,56,0.00,,,0.00,846,weatherlink.com 1.10,2013-09-23 17:17:00,
2013-09-23 13:32:00,70.1,53.0,30.05,NNW,342,2.0,10.0,55,0.00,,,0.00,823,weatherlink.com 1.10,2013-09-23 17:32:00,
2013-09-23 13:47:00,69.8,54.0,30.05,East,81,0.0,5.0,58,0.00,,,0.00,888,weatherlink.com 1.10,2013-09-23 17:47:00,
2013-09-23 14:02:00,70.9,54.0,30.05,East,84,1.0,5.0,56,0.00,,,0.00,1076,weatherlink.com 1.10,2013-09-23 18:02:00,
2013-09-23 14:17:00,71.0,55.0,30.05,WSW,243,0.0,4.0,57,0.00,,,0.00,323,weatherlink.com 1.10,2013-09-23 18:17:00,
2013-09-23 14:32:00,70.9,57.0,30.05,SW,236,1.0,3.0,61,0.00,,,0.00,385,weatherlink.com 1.10,2013-09-23 18:32:00,
2013-09-23 14:47:00,70.7,56.0,30.05,NE,38,1.0,5.0,60,0.00,,,0.00,404,weatherlink.com 1.10,2013-09-23 18:47:00,
2013-09-23 15:02:00,70.9,55.0,30.04,SE,130,1.0,4.0,57,0.00,,,0.00,436,weatherlink.com 1.10,2013-09-23 19:02:00,
2013-09-23 15:17:00,70.9,55.0,30.04,SW,231,0.0,3.0,58,0.00,,,0.00,401,weatherlink.com 1.10,2013-09-23 19:17:00,
2013-09-23 15:32:00,71.2,56.0,30.03,SSW,203,1.0,2.0,58,0.00,,,0.00,234,weatherlink.com 1.10,2013-09-23 19:32:00,
2013-09-23 15:47:00,70.7,57.0,30.04,SSW,211,0.0,1.0,63,0.00,,,0.00,160,weatherlink.com 1.10,2013-09-23 19:47:00,
2013-09-23 16:02:00,70.6,55.0,30.03,SW,229,1.0,7.0,59,0.00,,,0.00,179,weatherlink.com 1.10,2013-09-23 20:02:00,
2013-09-23 16:17:00,71.5,58.0,30.03,WSW,246,0.0,2.0,63,0.00,,,0.00,640,weatherlink.com 1.10,2013-09-23 20:17:00,
2013-09-23 16:32:00,71.4,57.0,30.04,SW,234,0.0,3.0,61,0.00,,,0.00,134,weatherlink.com 1.10,2013-09-23 20:32:00,
2013-09-23 16:47:00,70.2,57.0,30.04,WSW,248,0.0,3.0,63,0.00,,,0.00,448,weatherlink.com 1.10,2013-09-23 20:47:00,
2013-09-23 17:02:00,71.5,57.0,30.03,SW,222,2.0,4.0,60,0.00,,,0.00,123,weatherlink.com 1.10,2013-09-23 21:02:00,
2013-09-23 17:17:00,72.2,58.0,30.04,SW,236,0.0,5.0,61,0.00,,,0.00,366,weatherlink.com 1.10,2013-09-23 21:17:00,
2013-09-23 17:32:00,71.1,57.0,30.04,SW,236,0.0,2.0,62,0.00,,,0.00,58,weatherlink.com 1.10,2013-09-23 21:32:00,
2013-09-23 17:47:00,70.2,59.0,30.04,SW,236,0.0,0.0,68,0.00,,,0.00,234,weatherlink.com 1.10,2013-09-23 21:47:00,
2013-09-23 18:02:00,70.2,58.0,30.03,SW,236,0.0,2.0,65,0.00,,,0.00,130,weatherlink.com 1.10,2013-09-23 22:02:00,
2013-09-23 18:17:00,68.1,58.0,30.03,WSW,238,0.0,1.0,70,0.00,,,0.00,33,weatherlink.com 1.10,2013-09-23 22:17:00,
2013-09-23 18:32:00,66.4,59.0,30.04,WSW,238,0.0,0.0,76,0.00,,,0.00,21,weatherlink.com 1.10,2013-09-23 22:32:00,
2013-09-23 18:47:00,65.4,59.0,30.04,WSW,238,0.0,0.0,81,0.00,,,0.00,16,weatherlink.com 1.10,2013-09-23 22:47:00,
2013-09-23 19:02:00,64.4,60.0,30.04,WSW,238,0.0,0.0,84,0.00,,,0.00,7,weatherlink.com 1.10,2013-09-23 23:02:00,
2013-09-23 19:17:00,63.2,58.0,30.05,WSW,238,0.0,0.0,84,0.00,,,0.00,0,weatherlink.com 1.10,2013-09-23 23:17:00,
2013-09-23 19:32:00,62.0,59.0,30.04,WSW,238,0.0,0.0,88,0.00,,,0.00,0,weatherlink.com 1.10,2013-09-23 23:32:00,
2013-09-23 19:47:00,61.0,58.0,30.04,WSW,238,0.0,0.0,89,0.00,,,0.00,0,weatherlink.com 1.10,2013-09-23 23:47:00,
2013-09-23 20:03:00,60.2,57.0,30.05,WSW,238,0.0,0.0,90,0.00,,,0.00,0,weatherlink.com 1.10,2013-09-24 00:03:00,
2013-09-23 20:18:00,59.5,57.0,30.06,WSW,238,0.0,1.0,92,0.00,,,0.00,0,weatherlink.com 1.10,2013-09-24 00:18:00,
2013-09-23 20:33:00,59.0,57.0,30.06,WSW,238,0.0,0.0,92,0.00,,,0.00,0,weatherlink.com 1.10,2013-09-24 00:33:00,
2013-09-23 20:48:00,58.4,56.0,30.06,WSW,238,0.0,0.0,93,0.00,,,0.00,0,weatherlink.com 1.10,2013-09-24 00:48:00,
2013-09-23 21:03:00,57.9,56.0,30.06,WSW,238,0.0,0.0,93,0.00,,,0.00,0,weatherlink.com 1.10,2013-09-24 01:03:00,
2013-09-23 21:18:00,57.5,56.0,30.06,WSW,238,0.0,0.0,94,0.00,,,0.00,0,weatherlink.com 1.10,2013-09-24 01:18:00,
2013-09-23 21:33:00,57.1,55.0,30.06,WSW,238,0.0,0.0,94,0.00,,,0.00,0,weatherlink.com 1.10,2013-09-24 01:33:00,
2013-09-23 21:48:00,56.7,55.0,30.06,WSW,238,0.0,0.0,94,0.00,,,0.00,0,weatherlink.com 1.10,2013-09-24 01:48:00,
2013-09-23 22:03:00,56.4,55.0,30.06,WSW,238,0.0,0.0,94,0.00,,,0.00,0,weatherlink.com 1.10,2013-09-24 02:03:00,
2013-09-23 22:18:00,55.9,54.0,30.07,WSW,238,0.0,0.0,94,0.00,,,0.00,0,weatherlink.com 1.10,2013-09-24 02:18:00,
2013-09-23 22:33:00,55.5,54.0,30.07,WSW,238,0.0,0.0,95,0.00,,,0.00,0,weatherlink.com 1.10,2013-09-24 02:33:00,
2013-09-23 22:48:00,55.2,54.0,30.08,WSW,238,0.0,0.0,95,0.00,,,0.00,0,weatherlink.com 1.10,2013-09-24 02:48:00,
2013-09-23 23:03:00,54.9,54.0,30.09,WSW,238,0.0,0.0,95,0.00,,,0.00,0,weatherlink.com 1.10,2013-09-24 03:03:00,
2013-09-23 23:18:00,54.6,53.0,30.09,WSW,238,0.0,0.0,95,0.00,,,0.00,0,weatherlink.com 1.10,2013-09-24 03:18:00,
2013-09-23 23:33:00,54.2,53.0,30.08,WSW,238,0.0,0.0,95,0.00,,,0.00,0,weatherlink.com 1.10,2013-09-24 03:33:00,
2013-09-23 23:48:00,54.0,53.0,30.09,WSW,238,0.0,0.0,95,0.00,,,0.00,0,weatherlink.com 1.10,2013-09-24 03:48:00,